Summit, Pennsylvania
Current Conditions -  °F | °C
As of 4:08 PM on Tuesday 21 Oct 2014 (Local Time) from KELZ Reporting Station
Light Rain Light Rain  
Wind Chill: 46°   Ceiling: 3500
Heat Index: 49°   Visibility: 10mi
Dew Point: 46°   Wind: 7mph
Humidity: 90%   Direction: 280°W
Pressure: 29.88"   Gusts: NA
Location:  41.7605°N, 77.9728°W
Report Text: KELZ 212008Z AUTO 28006KT 10SM -RA SCT008 BKN035 OVC048 09/08 A2988 RMK AO2 P0000 T00940078
Loading
Personal Weather Stations






























Interactive Weather Map
Tropical Storm Tracking
New forecast layout! Learn more

10-Day Weather Forecast

Advertisements
Track Severe Weather on mobile